createdAt,value
2023-05-21T00:00:59.506Z,0
2023-05-21T00:02:13.795Z,0
2023-05-21T00:03:28.067Z,0
2023-05-21T00:04:42.490Z,0
2023-05-21T00:05:56.807Z,0
2023-05-21T00:07:11.086Z,0
2023-05-21T00:08:25.427Z,0
2023-05-21T00:09:39.831Z,0
2023-05-21T00:10:54.167Z,0
2023-05-21T00:12:07.508Z,0
2023-05-21T00:13:21.804Z,0
2023-05-21T00:14:36.195Z,0
2023-05-21T00:15:50.528Z,0
2023-05-21T00:17:04.814Z,0
2023-05-21T00:18:19.085Z,0
2023-05-21T00:19:33.503Z,0
2023-05-21T00:20:47.825Z,0
2023-05-21T00:22:02.098Z,0
2023-05-21T00:23:16.381Z,0
2023-05-21T00:24:30.795Z,0
2023-05-21T00:25:45.108Z,0
2023-05-21T00:26:59.397Z,0
2023-05-21T00:28:13.672Z,0
2023-05-21T00:29:28.074Z,0
2023-05-21T00:30:42.395Z,0
2023-05-21T00:31:56.802Z,0
2023-05-21T00:33:11.130Z,0
2023-05-21T00:34:25.404Z,0
2023-05-21T00:35:39.819Z,0
2023-05-21T00:36:54.146Z,0
2023-05-21T00:38:08.427Z,0
2023-05-21T00:39:22.693Z,0
2023-05-21T00:40:37.107Z,0
2023-05-21T00:41:51.422Z,0
2023-05-21T00:43:05.700Z,0
2023-05-21T00:44:19.980Z,0
2023-05-21T00:45:34.395Z,0
2023-05-21T00:46:48.720Z,0
2023-05-21T00:48:03.005Z,0
2023-05-21T00:49:17.277Z,0
2023-05-21T00:50:31.694Z,0
2023-05-21T00:51:46.012Z,0
2023-05-21T00:53:00.297Z,0
2023-05-21T00:54:14.580Z,0
2023-05-21T00:55:28.972Z,0
2023-05-21T00:56:43.312Z,0
2023-05-21T00:57:57.579Z,0
2023-05-21T00:59:11.866Z,0
2023-05-21T01:00:26.270Z,0
2023-05-21T01:01:40.585Z,0
2023-05-21T01:02:54.882Z,0
2023-05-21T01:04:09.150Z,0
2023-05-21T01:05:23.564Z,0
2023-05-21T01:06:37.887Z,0
2023-05-21T01:07:52.161Z,0
2023-05-21T01:09:06.447Z,0
2023-05-21T01:10:20.859Z,0
2023-05-21T01:11:35.184Z,0
2023-05-21T01:12:49.458Z,0
2023-05-21T01:14:03.735Z,0
2023-05-21T01:15:18.136Z,0
2023-05-21T01:16:32.469Z,0
2023-05-21T01:17:46.817Z,0
2023-05-21T01:19:00.219Z,0
2023-05-21T01:20:14.556Z,0
2023-05-21T01:21:28.885Z,0
2023-05-21T01:22:42.237Z,0
2023-05-21T01:23:56.644Z,0
2023-05-21T01:25:10.973Z,0
2023-05-21T01:26:25.240Z,0
2023-05-21T01:27:39.533Z,0
2023-05-21T01:28:53.929Z,0
2023-05-21T01:30:08.253Z,0
2023-05-21T01:31:22.546Z,0
2023-05-21T01:32:36.830Z,0
2023-05-21T01:33:51.227Z,0
2023-05-21T01:35:05.557Z,0
2023-05-21T01:36:19.824Z,0
2023-05-21T01:37:34.115Z,0
2023-05-21T01:38:48.525Z,0
2023-05-21T01:40:02.846Z,0
2023-05-21T01:41:17.121Z,0
2023-05-21T01:42:31.411Z,0
2023-05-21T01:43:45.818Z,0
2023-05-21T01:45:00.139Z,0
2023-05-21T01:46:14.410Z,0
2023-05-21T01:47:28.689Z,0
2023-05-21T01:48:43.107Z,0
2023-05-21T01:49:57.432Z,0
2023-05-21T01:51:11.707Z,0
2023-05-21T01:52:25.982Z,0
2023-05-21T01:53:40.448Z,0
2023-05-21T01:54:54.787Z,0
2023-05-21T01:56:08.148Z,0
2023-05-21T01:57:22.429Z,0
2023-05-21T01:58:36.832Z,0
2023-05-21T01:59:51.147Z,0
2023-05-21T02:01:05.437Z,0
2023-05-21T02:02:19.704Z,0
2023-05-21T02:03:34.116Z,0
2023-05-21T02:04:48.443Z,0
2023-05-21T02:06:02.727Z,0
2023-05-21T02:07:16.998Z,0
2023-05-21T02:08:31.414Z,0
2023-05-21T02:09:45.734Z,0
2023-05-21T02:11:00.007Z,0
2023-05-21T02:12:14.291Z,0
2023-05-21T02:13:28.693Z,0
2023-05-21T02:14:43.027Z,0
2023-05-21T02:15:57.310Z,0
2023-05-21T02:17:11.586Z,0
2023-05-21T02:18:25.991Z,0
2023-05-21T02:19:40.325Z,0
2023-05-21T02:20:54.595Z,0
2023-05-21T02:22:08.888Z,0
2023-05-21T02:23:23.288Z,0
2023-05-21T02:24:37.621Z,0
2023-05-21T02:25:51.902Z,0
2023-05-21T02:27:06.231Z,0
2023-05-21T02:28:20.649Z,0
2023-05-21T02:29:34.986Z,0
2023-05-21T02:30:48.323Z,0
2023-05-21T02:32:02.615Z,0
2023-05-21T02:33:17.017Z,0
2023-05-21T02:34:31.334Z,0
2023-05-21T02:35:45.621Z,0
2023-05-21T02:36:59.850Z,1
2023-05-21T02:38:14.249Z,0
2023-05-21T02:39:28.570Z,0
2023-05-21T02:40:42.862Z,0
2023-05-21T02:41:57.148Z,0
2023-05-21T02:43:11.550Z,0
2023-05-21T02:44:25.794Z,1
2023-05-21T02:45:40.022Z,1
2023-05-21T02:46:54.238Z,1
2023-05-21T02:48:08.464Z,1
2023-05-21T02:49:22.775Z,2
2023-05-21T02:50:37.059Z,0
2023-05-21T02:51:51.299Z,2
2023-05-21T02:53:05.522Z,2
2023-05-21T02:54:19.748Z,3
2023-05-21T02:55:34.035Z,3
2023-05-21T02:56:48.285Z,5
2023-05-21T02:58:02.503Z,4
2023-05-21T02:59:16.737Z,3
2023-05-21T03:00:30.955Z,9
2023-05-21T03:01:45.327Z,10
2023-05-21T03:02:59.605Z,10
2023-05-21T03:04:12.902Z,13
2023-05-21T03:05:27.126Z,11
2023-05-21T03:06:41.424Z,16
2023-05-21T03:07:55.682Z,18
2023-05-21T03:09:09.899Z,21
2023-05-21T03:10:24.121Z,27
2023-05-21T03:11:38.351Z,27
2023-05-21T03:12:52.653Z,30
2023-05-21T03:14:06.894Z,33
2023-05-21T03:15:21.128Z,40
2023-05-21T03:16:35.343Z,47
2023-05-21T03:17:49.582Z,50
2023-05-21T03:19:03.873Z,60
2023-05-21T03:20:18.119Z,67
2023-05-21T03:21:32.331Z,72
2023-05-21T03:22:46.574Z,86
2023-05-21T03:24:00.791Z,91
2023-05-21T03:25:15.098Z,105
2023-05-21T03:26:29.345Z,113
2023-05-21T03:27:43.571Z,122
2023-05-21T03:28:57.785Z,132
2023-05-21T03:30:12.022Z,141
2023-05-21T03:31:26.310Z,156
2023-05-21T03:32:40.557Z,162
2023-05-21T03:33:54.774Z,178
2023-05-21T03:35:09.063Z,190
2023-05-21T03:36:22.374Z,193
2023-05-21T03:37:36.613Z,212
2023-05-21T03:38:50.832Z,224
2023-05-21T03:40:05.055Z,242
2023-05-21T03:41:19.278Z,244
2023-05-21T03:42:33.592Z,264
2023-05-21T03:43:47.836Z,284
2023-05-21T03:45:02.051Z,298
2023-05-21T03:46:16.287Z,319
2023-05-21T03:47:30.508Z,326
2023-05-21T03:48:44.799Z,350
2023-05-21T03:49:59.040Z,372
2023-05-21T03:51:13.274Z,394
2023-05-21T03:52:27.497Z,421
2023-05-21T03:53:41.733Z,426
2023-05-21T03:54:56.030Z,455
2023-05-21T03:56:10.266Z,485
2023-05-21T03:57:24.495Z,507
2023-05-21T03:58:38.725Z,533
2023-05-21T03:59:52.958Z,541
2023-05-21T04:01:07.242Z,564
2023-05-21T04:02:21.490Z,586
2023-05-21T04:03:35.719Z,608
2023-05-21T04:04:49.944Z,637
2023-05-21T04:06:04.166Z,640
2023-05-21T04:07:18.526Z,674
2023-05-21T04:08:32.803Z,716
2023-05-21T04:09:47.104Z,755
2023-05-21T04:11:00.399Z,763
2023-05-21T04:12:14.699Z,820
2023-05-21T04:13:28.937Z,868
2023-05-21T04:14:43.167Z,898
2023-05-21T04:15:57.393Z,929
2023-05-21T04:17:11.606Z,937
2023-05-21T04:18:25.907Z,987
2023-05-21T04:19:40.149Z,1058
2023-05-21T04:20:54.380Z,1119
2023-05-21T04:22:08.600Z,1191
2023-05-21T04:23:22.838Z,1222
2023-05-21T04:24:37.137Z,1271
2023-05-21T04:25:51.375Z,1346
2023-05-21T04:27:05.610Z,1394
2023-05-21T04:28:19.831Z,1442
2023-05-21T04:29:34.062Z,1442
2023-05-21T04:30:48.344Z,1476
2023-05-21T04:32:02.598Z,1502
2023-05-21T04:33:16.815Z,1536
2023-05-21T04:34:31.055Z,1563
2023-05-21T04:35:45.279Z,1580
2023-05-21T04:36:59.571Z,1583
2023-05-21T04:38:13.819Z,1579
2023-05-21T04:39:28.043Z,1582
2023-05-21T04:40:42.278Z,1611
2023-05-21T04:41:56.559Z,1629
2023-05-21T04:43:10.852Z,1661
2023-05-21T04:44:25.139Z,1689
2023-05-21T04:45:38.435Z,1731
2023-05-21T04:46:52.662Z,1753
2023-05-21T04:48:06.958Z,1784
2023-05-21T04:49:21.189Z,1822
2023-05-21T04:50:35.433Z,1853
2023-05-21T04:51:49.647Z,1874
2023-05-21T04:53:03.884Z,1878
2023-05-21T04:54:18.183Z,1874
2023-05-21T04:55:32.422Z,1893
2023-05-21T04:56:46.638Z,1921
2023-05-21T04:58:00.877Z,1921
2023-05-21T04:59:15.102Z,1923
2023-05-21T05:00:29.393Z,1933
2023-05-21T05:01:43.646Z,1970
2023-05-21T05:02:57.869Z,2007
2023-05-21T05:04:12.095Z,2034
2023-05-21T05:05:26.320Z,2040
2023-05-21T05:06:40.616Z,2058
2023-05-21T05:07:54.869Z,2097
2023-05-21T05:09:09.091Z,2126
2023-05-21T05:10:23.306Z,2168
2023-05-21T05:11:37.547Z,2189
2023-05-21T05:12:51.828Z,2251
2023-05-21T05:14:06.088Z,2276
2023-05-21T05:15:20.299Z,2284
2023-05-21T05:16:34.600Z,2324
2023-05-21T05:17:47.881Z,2355
2023-05-21T05:19:02.131Z,2366
2023-05-21T05:20:16.356Z,2395
2023-05-21T05:21:30.588Z,2441
2023-05-21T05:22:44.803Z,2472
2023-05-21T05:23:59.113Z,2525
2023-05-21T05:25:13.355Z,2592
2023-05-21T05:26:27.569Z,2652
2023-05-21T05:27:41.809Z,2689
2023-05-21T05:28:56.030Z,2678
2023-05-21T05:30:10.331Z,2708
2023-05-21T05:31:24.560Z,2744
2023-05-21T05:32:38.784Z,2753
2023-05-21T05:33:53.017Z,2754
2023-05-21T05:35:07.239Z,2780
2023-05-21T05:36:21.556Z,2800
2023-05-21T05:37:35.791Z,2834
2023-05-21T05:38:50.011Z,2868
2023-05-21T05:40:04.237Z,2907
2023-05-21T05:41:18.468Z,2930
2023-05-21T05:42:32.767Z,2947
2023-05-21T05:43:47.003Z,2978
2023-05-21T05:45:01.241Z,3008
2023-05-21T05:46:15.458Z,3022
2023-05-21T05:47:29.692Z,3017
2023-05-21T05:48:44.040Z,3055
2023-05-21T05:49:58.327Z,3077
2023-05-21T05:51:12.606Z,3115
2023-05-21T05:52:25.909Z,3135
2023-05-21T05:53:40.208Z,3201
2023-05-21T05:54:54.455Z,3247
2023-05-21T05:56:08.667Z,3336
2023-05-21T05:57:22.900Z,3400
2023-05-21T05:58:37.137Z,3416
2023-05-21T05:59:51.440Z,3438
2023-05-21T06:01:05.669Z,3456
2023-05-21T06:02:19.889Z,3444
2023-05-21T06:03:34.124Z,3412
2023-05-21T06:04:48.344Z,3405
2023-05-21T06:06:02.648Z,3406
2023-05-21T06:07:16.901Z,3435
2023-05-21T06:08:31.117Z,3483
2023-05-21T06:09:45.343Z,3551
2023-05-21T06:10:59.569Z,3587
2023-05-21T06:12:13.863Z,3671
2023-05-21T06:13:28.105Z,3801
2023-05-21T06:14:42.329Z,3873
2023-05-21T06:15:56.563Z,3944
2023-05-21T06:17:10.789Z,3982
2023-05-21T06:19:39.332Z,4059
2023-05-21T06:20:53.566Z,4131
2023-05-21T06:22:07.790Z,4089
2023-05-21T06:23:22.145Z,4272
2023-05-21T06:24:36.459Z,4400
2023-05-21T06:25:50.701Z,4557
2023-05-21T06:27:04.930Z,4649
2023-05-21T06:28:19.151Z,4768
2023-05-21T06:29:33.368Z,4778
2023-05-21T06:30:47.666Z,4830
2023-05-21T06:32:01.909Z,4880
2023-05-21T06:33:16.142Z,4879
2023-05-21T06:34:30.368Z,4861
2023-05-21T06:35:44.598Z,4846
2023-05-21T06:36:58.899Z,4816
2023-05-21T06:38:13.128Z,4806
2023-05-21T06:39:27.356Z,4790
2023-05-21T06:40:41.594Z,4786
2023-05-21T06:41:55.824Z,4784
2023-05-21T06:43:10.108Z,4812
2023-05-21T06:44:24.000Z,4804
2023-05-21T06:45:38.580Z,4793
2023-05-21T06:46:52.813Z,4803
2023-05-21T06:48:07.039Z,4803
2023-05-21T06:49:21.336Z,4819
2023-05-21T06:50:35.569Z,4937
2023-05-21T06:51:49.807Z,4951
2023-05-21T06:53:04.025Z,5005
2023-05-21T06:54:18.308Z,4997
2023-05-21T06:55:32.617Z,5022
2023-05-21T06:56:46.887Z,5073
2023-05-21T06:58:00.198Z,5138
2023-05-21T06:59:14.408Z,5237
2023-05-21T07:00:28.713Z,5254
2023-05-21T07:01:42.968Z,5394
2023-05-21T07:02:57.190Z,5418
2023-05-21T07:04:11.412Z,5498
2023-05-21T07:05:25.637Z,5445
2023-05-21T07:06:39.943Z,5595
2023-05-21T07:07:54.173Z,5626
2023-05-21T07:09:08.398Z,5686
2023-05-21T07:10:22.629Z,5838
2023-05-21T07:11:36.852Z,5800
2023-05-21T07:12:51.167Z,5879
2023-05-21T07:14:05.398Z,5829
2023-05-21T07:15:19.620Z,5849
2023-05-21T07:16:33.863Z,5879
2023-05-21T07:17:48.080Z,5876
2023-05-21T07:19:02.372Z,5919
2023-05-21T07:20:16.616Z,5972
2023-05-21T07:21:30.975Z,6013
2023-05-21T07:22:45.211Z,6027
2023-05-21T07:23:59.433Z,6084
2023-05-21T07:25:13.723Z,6166
2023-05-21T07:26:27.967Z,6132
2023-05-21T07:27:42.195Z,6131
2023-05-21T07:28:56.416Z,6177
2023-05-21T07:30:10.655Z,6186
2023-05-21T07:31:24.949Z,6130
2023-05-21T07:32:39.196Z,6165
2023-05-21T07:33:53.425Z,6257
2023-05-21T07:35:07.648Z,6449
2023-05-21T07:36:21.865Z,6546
2023-05-21T07:37:36.173Z,6888
2023-05-21T07:38:50.417Z,7257
2023-05-21T07:40:04.646Z,7726
2023-05-21T07:41:18.858Z,8282
2023-05-21T07:42:33.098Z,8726
2023-05-21T07:43:47.388Z,9555
2023-05-21T07:45:01.621Z,10370
2023-05-21T07:46:15.852Z,10135
2023-05-21T07:47:30.075Z,10514
2023-05-21T07:48:44.000Z,10749
2023-05-21T07:49:58.614Z,10351
2023-05-21T07:51:12.861Z,10513
2023-05-21T07:52:27.087Z,10199
2023-05-21T07:53:41.300Z,12476
2023-05-21T07:54:55.529Z,12477
2023-05-21T07:56:09.839Z,12166
2023-05-21T07:57:24.076Z,12676
2023-05-21T07:58:38.295Z,11219
2023-05-21T07:59:52.514Z,10830
2023-05-21T08:01:06.750Z,10589
2023-05-21T08:02:21.044Z,11849
2023-05-21T08:03:35.297Z,9554
2023-05-21T08:04:49.521Z,10386
2023-05-21T08:06:03.738Z,9997
2023-05-21T08:07:18.037Z,9767
2023-05-21T08:08:32.328Z,9922
2023-05-21T08:09:46.614Z,10086
2023-05-21T08:10:59.935Z,10011
2023-05-21T08:12:13.000Z,10601
2023-05-21T08:13:27.472Z,10936
2023-05-21T08:14:41.717Z,11777
2023-05-21T08:15:55.926Z,12486
2023-05-21T08:17:10.166Z,11840
2023-05-21T08:18:24.454Z,9431
2023-05-21T08:19:38.699Z,10383
2023-05-21T08:20:52.935Z,11890
2023-05-21T08:22:07.158Z,13801
2023-05-21T08:23:21.388Z,12879
2023-05-21T08:24:35.679Z,10314
2023-05-21T08:25:49.924Z,9920
2023-05-21T08:27:04.146Z,10166
2023-05-21T08:28:18.378Z,10403
2023-05-21T08:29:32.610Z,11767
2023-05-21T08:30:46.895Z,11462
2023-05-21T08:32:01.148Z,12099
2023-05-21T08:33:15.361Z,14204
2023-05-21T08:34:29.601Z,15563
2023-05-21T08:35:43.819Z,13568
2023-05-21T08:36:58.116Z,14360
2023-05-21T08:38:12.366Z,14027
2023-05-21T08:39:26.583Z,13969
2023-05-21T08:40:40.808Z,16154
2023-05-21T08:41:55.045Z,16897
2023-05-21T08:43:09.403Z,16643
2023-05-21T08:44:23.686Z,19687
2023-05-21T08:45:36.987Z,18741
2023-05-21T08:46:51.202Z,19461
2023-05-21T08:48:05.503Z,17229
2023-05-21T08:49:19.756Z,16891
2023-05-21T08:50:33.977Z,15737
2023-05-21T08:51:48.335Z,16333
2023-05-21T08:53:02.550Z,16574
2023-05-21T08:54:16.851Z,18090
2023-05-21T08:55:31.106Z,16720
2023-05-21T08:56:45.311Z,12531
2023-05-21T08:57:59.538Z,10788
2023-05-21T08:59:13.774Z,10790
2023-05-21T09:00:28.078Z,9535
2023-05-21T09:01:42.312Z,9459
2023-05-21T09:02:56.548Z,10095
2023-05-21T09:04:10.765Z,10363
2023-05-21T09:05:24.987Z,10532
2023-05-21T09:06:39.300Z,11773
2023-05-21T09:07:53.538Z,13363
2023-05-21T09:09:07.755Z,14875
2023-05-21T09:10:21.987Z,15564
2023-05-21T09:11:36.222Z,16514
2023-05-21T09:12:50.514Z,15439
2023-05-21T09:14:04.757Z,18845
2023-05-21T09:15:18.978Z,19221
2023-05-21T09:16:33.196Z,19814
2023-05-21T09:17:47.435Z,20659
2023-05-21T09:19:01.727Z,20677
2023-05-21T09:20:15.965Z,21413
2023-05-21T09:21:30.340Z,18296
2023-05-21T09:22:44.561Z,18447
2023-05-21T09:23:58.803Z,19997
2023-05-21T09:25:13.105Z,20520
2023-05-21T09:26:27.341Z,19413
2023-05-21T09:27:41.572Z,21372
2023-05-21T09:28:55.784Z,21354
2023-05-21T09:30:10.028Z,20965
2023-05-21T09:31:24.310Z,25221
2023-05-21T09:32:38.563Z,21976
2023-05-21T09:33:52.781Z,23390
2023-05-21T09:35:07.000Z,23481
2023-05-21T09:36:21.245Z,21955
2023-05-21T09:37:35.544Z,24886
2023-05-21T09:38:49.774Z,24589
2023-05-21T09:40:04.002Z,22197
2023-05-21T09:41:18.240Z,24640
2023-05-21T09:42:32.463Z,76510
2023-05-21T09:43:46.769Z,76537
2023-05-21T09:45:01.006Z,76282
2023-05-21T09:46:15.224Z,76717
2023-05-21T09:47:29.458Z,77325
2023-05-21T09:48:43.692Z,78518
2023-05-21T09:49:57.976Z,78199
2023-05-21T09:51:12.219Z,76985
2023-05-21T09:52:26.518Z,79532
2023-05-21T09:53:39.808Z,78627
2023-05-21T09:54:54.111Z,78730
2023-05-21T09:56:08.344Z,78291
2023-05-21T09:57:22.581Z,79135
2023-05-21T09:58:36.800Z,78849
2023-05-21T09:59:51.026Z,79220
2023-05-21T10:01:05.330Z,78435
2023-05-21T10:02:19.573Z,78497
2023-05-21T10:03:33.797Z,78020
2023-05-21T10:04:48.026Z,76520
2023-05-21T10:06:02.245Z,77184
2023-05-21T10:07:16.560Z,78251
2023-05-21T10:08:30.795Z,78527
2023-05-21T10:09:45.033Z,78544
2023-05-21T10:10:59.371Z,78491
2023-05-21T10:12:13.605Z,76112
2023-05-21T10:13:27.907Z,76886
2023-05-21T10:15:56.366Z,76650
2023-05-21T10:17:10.603Z,25211
2023-05-21T10:18:24.817Z,25925
2023-05-21T10:19:39.117Z,22904
2023-05-21T10:20:53.365Z,20343
2023-05-21T10:22:07.598Z,21205
2023-05-21T10:23:21.824Z,20655
2023-05-21T10:24:36.040Z,21723
2023-05-21T10:25:50.341Z,21173
2023-05-21T10:27:04.595Z,20548
2023-05-21T10:28:18.808Z,20685
2023-05-21T10:29:33.000Z,20878
2023-05-21T10:30:47.263Z,21034
2023-05-21T10:32:01.582Z,23378
2023-05-21T10:33:15.808Z,22137
2023-05-21T10:34:30.035Z,24496
2023-05-21T10:35:44.275Z,26304
2023-05-21T10:36:58.492Z,26170
2023-05-21T10:38:12.801Z,26785
2023-05-21T10:39:27.043Z,25395
2023-05-21T10:40:41.260Z,24639
2023-05-21T10:41:55.497Z,26146
2023-05-21T10:43:09.715Z,24660
2023-05-21T10:44:24.022Z,29973
2023-05-21T10:45:38.257Z,29027
2023-05-21T10:46:52.492Z,28906
2023-05-21T10:48:06.716Z,74639
2023-05-21T10:49:20.938Z,25783
2023-05-21T10:50:35.246Z,76480
2023-05-21T10:51:49.477Z,77552
2023-05-21T10:53:03.707Z,76264
2023-05-21T10:54:17.930Z,74957
2023-05-21T10:55:32.163Z,27010
2023-05-21T10:56:46.533Z,23758
2023-05-21T10:58:00.815Z,23230
2023-05-21T10:59:14.137Z,21560
2023-05-21T11:00:28.419Z,21189
2023-05-21T11:01:42.714Z,20764
2023-05-21T11:02:56.997Z,20705
2023-05-21T11:04:11.000Z,20081
2023-05-21T11:05:25.574Z,20230
2023-05-21T11:06:39.850Z,20115
2023-05-21T11:07:54.160Z,18966
2023-05-21T11:09:08.445Z,21294
2023-05-21T11:10:22.720Z,75201
2023-05-21T11:11:37.007Z,77247
2023-05-21T11:12:51.304Z,77891
2023-05-21T11:14:05.599Z,78092
2023-05-21T11:15:19.875Z,77791
2023-05-21T11:16:33.219Z,77840
2023-05-21T11:17:47.497Z,75696
2023-05-21T11:19:01.793Z,30015
2023-05-21T11:20:16.070Z,27295
2023-05-21T11:21:29.374Z,25188
2023-05-21T11:22:43.607Z,23266
2023-05-21T11:23:57.908Z,23588
2023-05-21T11:25:12.144Z,23860
2023-05-21T11:26:26.378Z,22129
2023-05-21T11:27:40.595Z,21538
2023-05-21T11:28:54.819Z,21490
2023-05-21T11:30:09.117Z,22861
2023-05-21T11:31:23.374Z,24064
2023-05-21T11:32:37.591Z,23633
2023-05-21T11:33:51.818Z,24307
2023-05-21T11:35:06.038Z,25796
2023-05-21T11:36:20.354Z,76736
2023-05-21T11:37:34.591Z,75279
2023-05-21T11:38:48.815Z,31041
2023-05-21T11:40:03.048Z,31732
2023-05-21T11:41:17.268Z,31833
2023-05-21T11:42:31.573Z,30933
2023-05-21T11:43:45.812Z,29367
2023-05-21T11:45:00.042Z,75773
2023-05-21T11:46:14.266Z,75469
2023-05-21T11:47:28.499Z,31851
2023-05-21T11:48:42.795Z,26815
2023-05-21T11:49:57.030Z,23577
2023-05-21T11:51:11.265Z,27240
2023-05-21T11:52:25.540Z,23713
2023-05-21T11:53:38.844Z,22097
2023-05-21T11:54:53.082Z,21273
2023-05-21T11:56:07.321Z,23091
2023-05-21T11:57:21.535Z,23249
2023-05-21T11:58:35.758Z,22988
2023-05-21T11:59:50.071Z,23501
2023-05-21T12:01:04.305Z,23688
2023-05-21T12:02:18.544Z,23583
2023-05-21T12:03:32.762Z,25920
2023-05-21T12:04:46.980Z,24009
2023-05-21T12:06:01.294Z,26165
2023-05-21T12:07:15.534Z,23959
2023-05-21T12:08:29.753Z,24306
2023-05-21T12:09:43.987Z,23232
2023-05-21T12:10:58.206Z,22993
2023-05-21T12:12:12.504Z,24482
2023-05-21T12:13:26.758Z,22063
2023-05-21T12:14:40.972Z,20121
2023-05-21T12:15:55.202Z,19290
2023-05-21T12:17:09.433Z,18531
2023-05-21T12:18:23.724Z,16811
2023-05-21T12:19:37.969Z,17289
2023-05-21T12:20:52.203Z,16942
2023-05-21T12:22:06.419Z,17631
2023-05-21T12:23:20.647Z,17307
2023-05-21T12:24:35.009Z,27193
2023-05-21T12:25:49.293Z,24110
2023-05-21T12:27:02.603Z,24982
2023-05-21T12:28:16.834Z,27319
2023-05-21T12:29:31.122Z,22008
2023-05-21T12:31:59.585Z,20160
2023-05-21T12:33:13.815Z,23627
2023-05-21T12:34:28.047Z,26867
2023-05-21T12:35:42.348Z,22769
2023-05-21T12:36:56.587Z,23809
2023-05-21T12:39:25.037Z,22963
2023-05-21T12:40:39.272Z,21987
2023-05-21T12:41:53.565Z,18082
2023-05-21T12:43:07.806Z,15669
2023-05-21T12:44:22.031Z,14587
2023-05-21T12:45:36.257Z,14128
2023-05-21T12:46:50.486Z,13771
2023-05-21T12:48:04.784Z,13908
2023-05-21T12:49:19.030Z,14114
2023-05-21T12:50:33.248Z,14881
2023-05-21T12:51:47.486Z,15747
2023-05-21T12:53:01.718Z,15830
2023-05-21T12:54:16.017Z,15989
2023-05-21T12:55:30.251Z,17546
2023-05-21T12:56:44.490Z,18127
2023-05-21T12:57:58.771Z,18933
2023-05-21T12:59:12.051Z,18898
2023-05-21T13:00:26.309Z,18389
2023-05-21T13:01:40.533Z,21868
2023-05-21T13:02:54.764Z,24645
2023-05-21T13:04:08.983Z,21686
2023-05-21T13:05:23.276Z,21385
2023-05-21T13:06:37.521Z,80727
2023-05-21T13:07:51.749Z,81249
2023-05-21T13:09:05.971Z,78582
2023-05-21T13:11:34.511Z,23667
2023-05-21T13:12:48.751Z,19938
2023-05-21T13:14:02.964Z,17102
2023-05-21T13:15:17.202Z,18457
2023-05-21T13:16:31.433Z,18611
2023-05-21T13:17:45.737Z,20475
2023-05-21T13:18:59.973Z,18649
2023-05-21T13:20:14.186Z,18093
2023-05-21T13:21:28.427Z,18046
2023-05-21T13:22:42.657Z,18785
2023-05-21T13:23:56.943Z,18462
2023-05-21T13:25:11.197Z,20126
2023-05-21T13:26:25.415Z,19836
2023-05-21T13:27:39.652Z,19462
2023-05-21T13:28:53.863Z,19722
2023-05-21T13:30:08.232Z,18457
2023-05-21T13:31:22.522Z,23156
2023-05-21T13:32:35.853Z,21741
2023-05-21T13:33:49.152Z,21713
2023-05-21T13:35:03.382Z,19179
2023-05-21T13:36:17.604Z,20712
2023-05-21T13:37:31.837Z,19900
2023-05-21T13:38:46.070Z,27196
2023-05-21T13:40:00.373Z,75725
2023-05-21T13:41:14.603Z,26887
2023-05-21T13:42:28.831Z,22329
2023-05-21T13:43:43.061Z,19508
2023-05-21T13:44:57.290Z,15937
2023-05-21T13:46:11.581Z,17009
2023-05-21T13:47:25.821Z,20922
2023-05-21T13:48:40.055Z,78997
2023-05-21T13:49:54.279Z,78107
2023-05-21T13:51:08.512Z,81383
2023-05-21T13:52:22.808Z,72049
2023-05-21T13:53:37.050Z,19211
2023-05-21T13:54:51.287Z,75364
2023-05-21T13:56:05.513Z,25865
2023-05-21T13:57:19.739Z,28612
2023-05-21T13:58:34.029Z,19155
2023-05-21T13:59:48.274Z,16999
2023-05-21T14:02:16.730Z,15607
2023-05-21T14:03:30.963Z,14081
2023-05-21T14:04:45.317Z,31246
2023-05-21T14:05:59.603Z,19409
2023-05-21T14:07:12.902Z,76080
2023-05-21T14:08:27.125Z,25370
2023-05-21T14:09:41.432Z,25273
2023-05-21T14:10:55.665Z,21977
2023-05-21T14:12:09.894Z,23712
2023-05-21T14:13:24.110Z,23316
2023-05-21T14:14:38.347Z,24034
2023-05-21T14:15:52.640Z,18669
2023-05-21T14:17:06.889Z,72572
2023-05-21T14:18:21.118Z,27329
2023-05-21T14:19:35.333Z,24113
2023-05-21T14:20:49.574Z,25616
2023-05-21T14:22:03.866Z,25288
2023-05-21T14:23:18.111Z,20722
2023-05-21T14:24:32.345Z,12939
2023-05-21T14:25:46.563Z,21257
2023-05-21T14:27:00.795Z,19102
2023-05-21T14:28:15.092Z,21338
2023-05-21T14:29:29.334Z,20726
2023-05-21T14:30:43.561Z,24887
2023-05-21T14:31:57.791Z,23306
2023-05-21T14:33:12.006Z,20790
2023-05-21T14:34:26.309Z,28808
2023-05-21T14:35:40.561Z,29182
2023-05-21T14:36:54.787Z,30006
2023-05-21T14:38:09.059Z,26811
2023-05-21T14:39:22.398Z,29523
2023-05-21T14:40:36.675Z,30106
2023-05-21T14:41:50.975Z,24135
2023-05-21T14:43:05.253Z,13474
2023-05-21T14:44:19.529Z,11387
2023-05-21T14:45:33.826Z,11058
2023-05-21T14:46:48.110Z,10565
2023-05-21T14:48:02.402Z,10330
2023-05-21T14:49:16.685Z,10176
2023-05-21T14:50:30.965Z,9998
2023-05-21T14:51:45.280Z,10014
2023-05-21T14:52:59.544Z,9705
2023-05-21T14:54:13.837Z,9660
2023-05-21T14:55:27.179Z,9659
2023-05-21T14:56:41.475Z,9505
2023-05-21T14:57:55.756Z,9127
2023-05-21T14:59:10.029Z,9364
2023-05-21T15:00:24.328Z,9385
2023-05-21T15:01:38.606Z,9373
2023-05-21T15:02:52.903Z,9526
2023-05-21T15:04:07.184Z,9501
2023-05-21T15:05:20.482Z,9107
2023-05-21T15:06:34.705Z,8965
2023-05-21T15:07:49.020Z,9207
2023-05-21T15:09:03.254Z,9361
2023-05-21T15:10:17.595Z,9407
2023-05-21T15:11:31.838Z,9490
2023-05-21T15:12:46.053Z,9461
2023-05-21T15:14:00.351Z,9357
2023-05-21T15:15:14.594Z,9309
2023-05-21T15:16:28.822Z,9328
2023-05-21T15:17:43.051Z,9225
2023-05-21T15:18:57.276Z,9232
2023-05-21T15:20:11.586Z,9143
2023-05-21T15:21:25.813Z,9276
2023-05-21T15:22:40.046Z,9184
2023-05-21T15:23:54.267Z,9010
2023-05-21T15:25:08.503Z,9003
2023-05-21T15:26:22.803Z,8919
2023-05-21T15:27:37.047Z,8802
2023-05-21T15:28:51.275Z,8655
2023-05-21T15:30:05.485Z,8444
2023-05-21T15:31:19.709Z,8479
2023-05-21T15:32:34.025Z,8378
2023-05-21T15:33:48.269Z,8381
2023-05-21T15:35:02.491Z,8215
2023-05-21T15:36:16.720Z,8057
2023-05-21T15:37:30.933Z,8086
2023-05-21T15:38:45.250Z,8083
2023-05-21T15:39:59.491Z,8019
2023-05-21T15:41:13.704Z,7854
2023-05-21T15:42:27.926Z,7742
2023-05-21T15:43:42.159Z,7688
2023-05-21T15:44:56.466Z,7575
2023-05-21T15:46:10.701Z,7560
2023-05-21T15:47:24.937Z,7359
2023-05-21T15:48:39.149Z,7103
2023-05-21T15:49:53.383Z,7023
2023-05-21T15:51:07.688Z,6863
2023-05-21T15:52:21.923Z,6711
2023-05-21T15:53:36.152Z,6571
2023-05-21T15:54:50.376Z,6374
2023-05-21T15:56:04.664Z,6354
2023-05-21T15:57:18.954Z,6163
2023-05-21T15:58:33.248Z,6008
2023-05-21T15:59:46.569Z,5884
2023-05-21T16:01:00.868Z,5861
2023-05-21T16:02:15.158Z,5761
2023-05-21T16:03:29.449Z,5700
2023-05-21T16:04:42.788Z,5628
2023-05-21T16:05:57.071Z,5542
2023-05-21T16:07:11.369Z,5306
2023-05-21T16:08:25.647Z,5122
2023-05-21T16:09:39.946Z,5043
2023-05-21T16:10:54.226Z,5114
2023-05-21T16:12:08.498Z,5151
2023-05-21T16:13:22.796Z,5068
2023-05-21T16:14:37.096Z,5107
2023-05-21T16:15:50.374Z,5106
2023-05-21T16:17:04.616Z,5103
2023-05-21T16:18:18.912Z,5138
2023-05-21T16:19:33.161Z,5166
2023-05-21T16:20:47.387Z,5181
2023-05-21T16:22:01.721Z,5234
2023-05-21T16:23:15.951Z,5237
2023-05-21T16:24:30.260Z,5279
2023-05-21T16:25:44.498Z,5386
2023-05-21T16:26:58.715Z,5387
2023-05-21T16:28:12.946Z,5321
2023-05-21T16:29:27.173Z,5255
2023-05-21T16:30:41.466Z,5071
2023-05-21T16:31:55.718Z,4984
2023-05-21T16:33:09.943Z,4926
2023-05-21T16:34:24.179Z,4805
2023-05-21T16:35:38.398Z,4765
2023-05-21T16:36:52.698Z,4659
2023-05-21T16:38:06.928Z,4597
2023-05-21T16:39:21.171Z,4520
2023-05-21T16:40:35.386Z,4467
2023-05-21T16:41:49.607Z,4503
2023-05-21T16:43:03.920Z,4536